Time;durP1;ratioP1;P1;durP2;ratioP2;P2;SDS_P1;SDS_P2;PMS_P1;PMS_P2;Temp;Humidity;BMP_temperature;BMP_pressure;BME280_temperature;BME280_humidity;BME280_pressure;Samples;Min_cycle;Max_cycle;Signal;HPM_P1;HPM_P2
2022/03/04 00:01:03;;;;;;;;;57.50;49.50;;;;;11.50;69.46;100995.31;5060494;28;45442;-87
2022/03/04 00:03:31;;;;;;;;;57.50;48.25;;;;;11.53;69.50;100999.72;5053511;28;45431;-78
2022/03/04 00:15:28;;;;;;;;;61.75;50.00;;;;;11.53;69.13;101007.63;5044756;28;45195;-84
2022/03/04 00:23:32;;;;;;;;;67.25;51.25;;;;;11.54;70.16;101009.38;5059460;28;45231;-86
2022/03/04 00:26:34;;;;;;;;;58.25;48.00;;;;;11.53;69.37;101011.16;5061269;28;45472;-86
2022/03/04 00:29:00;;;;;;;;;61.25;50.75;;;;;11.53;69.52;101002.34;5061200;28;45422;-87
2022/03/04 00:34:31;;;;;;;;;62.50;52.25;;;;;11.34;70.31;100965.28;5061403;28;45335;-81
2022/03/04 00:37:31;;;;;;;;;65.50;51.50;;;;;11.59;69.77;101010.31;5061227;28;45386;-83
2022/03/04 00:40:15;;;;;;;;;60.50;49.00;;;;;11.61;69.45;101012.09;5073479;28;45177;-80
2022/03/04 00:46:17;;;;;;;;;66.50;52.75;;;;;11.62;69.70;101000.66;5061030;28;45462;-83
2022/03/04 00:55:33;;;;;;;;;67.25;52.00;;;;;11.57;69.43;100996.25;5057057;28;45869;-82
2022/03/04 00:58:12;;;;;;;;;66.00;52.25;;;;;11.50;70.93;100997.06;5038251;28;45424;-84
2022/03/04 01:04:24;;;;;;;;;66.50;53.25;;;;;11.29;71.43;100997.78;5041362;28;45317;-83
2022/03/04 01:07:27;;;;;;;;;65.00;50.00;;;;;11.17;71.31;101001.19;5041012;28;46263;-81
2022/03/04 01:10:19;;;;;;;;;62.50;51.25;;;;;11.07;72.18;100994.97;5041063;28;45358;-84
2022/03/04 01:12:51;;;;;;;;;67.50;54.50;;;;;11.00;71.63;101003.66;5041115;28;45485;-85
2022/03/04 01:15:17;;;;;;;;;66.75;55.00;;;;;10.95;72.64;101005.34;5049072;28;46270;-79
2022/03/04 01:21:41;;;;;;;;;62.00;50.00;;;;;10.81;72.04;101007.88;5038326;28;45481;-81
2022/03/04 01:24:19;;;;;;;;;68.00;54.25;;;;;10.75;72.23;101013.06;5038221;28;45245;-86
2022/03/04 01:33:21;;;;;;;;;72.00;57.25;;;;;10.61;72.70;101003.22;5038064;28;45248;-85
2022/03/04 01:35:55;;;;;;;;;68.50;54.50;;;;;10.50;72.91;100982.03;5037951;28;45283;-87
2022/03/04 01:38:42;;;;;;;;;66.75;53.75;;;;;10.49;73.54;101002.22;5037844;28;45555;-87
2022/03/04 01:41:26;;;;;;;;;70.50;56.25;;;;;10.52;73.80;100993.50;5037880;28;46352;-86
2022/03/04 01:44:10;;;;;;;;;68.75;54.75;;;;;10.55;73.70;100999.66;5037932;28;45467;-85
2022/03/04 01:46:35;;;;;;;;;61.25;50.75;;;;;10.60;73.16;101004.09;5037808;28;45424;-87
2022/03/04 01:49:20;;;;;;;;;71.75;56.00;;;;;10.63;73.20;101001.50;5038836;28;45474;-77
2022/03/04 01:51:57;;;;;;;;;72.50;54.25;;;;;10.63;72.40;100985.69;5050211;28;46471;-87
2022/03/04 01:57:13;;;;;;;;;68.75;56.50;;;;;10.65;72.30;100999.78;5054785;28;45380;-87
2022/03/04 02:02:28;;;;;;;;;67.75;52.25;;;;;10.48;72.97;100984.66;5057881;28;45864;-84
2022/03/04 02:05:24;;;;;;;;;67.25;53.25;;;;;10.47;73.90;100984.63;5058357;28;45375;-84
2022/03/04 02:07:50;;;;;;;;;69.75;55.50;;;;;10.40;74.38;100982.78;5058086;28;45222;-85
2022/03/04 02:10:15;;;;;;;;;67.25;53.50;;;;;10.36;74.71;100973.97;5058147;28;45392;-84
2022/03/04 02:12:41;;;;;;;;;66.50;54.50;;;;;10.32;74.90;100972.16;5039796;28;46807;-81
2022/03/04 02:15:07;;;;;;;;;67.00;55.00;;;;;10.22;74.28;100965.00;5058146;28;45355;-83
2022/03/04 02:17:33;;;;;;;;;70.00;55.75;;;;;10.24;74.56;100977.34;5057786;28;45479;-84
2022/03/04 02:19:59;;;;;;;;;66.50;54.00;;;;;10.24;73.94;100973.84;5057954;28;45327;-86
2022/03/04 02:22:24;;;;;;;;;70.25;55.50;;;;;10.16;74.46;100971.06;5057618;28;46180;-83
2022/03/04 02:25:05;;;;;;;;;70.50;55.75;;;;;10.14;74.36;100966.63;5061243;28;45398;-83
2022/03/04 02:27:31;;;;;;;;;68.75;55.25;;;;;10.01;74.51;100955.06;5073269;28;45221;-84
2022/03/04 02:29:56;;;;;;;;;75.00;57.33;;;;;10.03;75.15;100968.25;5063282;28;45255;-83
2022/03/04 02:32:22;;;;;;;;;67.25;55.25;;;;;10.02;74.64;100970.00;5062783;28;45232;-88
2022/03/04 02:34:47;;;;;;;;;69.50;54.25;;;;;9.98;75.13;100970.81;5063649;28;45272;-87
2022/03/04 02:37:14;;;;;;;;;68.25;55.50;;;;;9.95;74.76;100965.50;5046272;28;45698;-85
2022/03/04 02:39:39;;;;;;;;;75.33;55.00;;;;;9.92;76.02;100965.47;5065723;28;45322;-81
2022/03/04 02:42:04;;;;;;;;;74.67;58.33;;;;;9.95;75.52;100974.28;5065622;28;46005;-83
2022/03/04 02:44:30;;;;;;;;;65.33;52.00;;;;;9.98;75.83;100969.06;5063824;28;45312;-87
2022/03/04 02:46:55;;;;;;;;;71.75;56.75;;;;;9.98;75.38;100963.81;5062335;28;45313;-86
2022/03/04 02:49:21;;;;;;;;;71.75;56.25;;;;;10.06;75.29;100966.56;5063703;28;45321;-86
2022/03/04 02:51:46;;;;;;;;;72.33;57.00;;;;;10.11;75.21;100959.59;5063174;28;45501;-83
2022/03/04 02:54:11;;;;;;;;;73.33;57.33;;;;;10.22;74.92;100971.16;5063755;28;45416;-79
2022/03/04 02:56:37;;;;;;;;;70.00;56.33;;;;;10.14;75.18;100945.56;5065151;28;45676;-81
2022/03/04 02:59:02;;;;;;;;;76.33;55.67;;;;;10.10;74.96;100934.13;5066849;28;45323;-77
2022/03/04 03:01:28;;;;;;;;;64.25;53.00;;;;;10.37;74.38;100973.09;5070315;28;45941;-81
2022/03/04 03:03:53;;;;;;;;;69.50;56.75;;;;;10.39;74.16;100967.84;5067565;28;45229;-84
2022/03/04 03:06:19;;;;;;;;;73.33;57.33;;;;;10.45;74.44;100982.00;5063619;28;45269;-84
2022/03/04 03:08:44;;;;;;;;;72.33;54.00;;;;;10.23;74.13;100932.53;5062713;28;45363;-88
2022/03/04 03:11:10;;;;;;;;;71.33;56.67;;;;;10.51;73.55;100975.88;5063993;28;45261;-83
2022/03/04 03:13:35;;;;;;;;;61.75;52.50;;;;;10.51;73.72;100974.13;5064824;28;45320;-79
2022/03/04 03:16:01;;;;;;;;;68.67;54.33;;;;;10.51;73.85;100986.44;5065081;28;45284;-87
2022/03/04 03:18:26;;;;;;;;;72.67;54.67;;;;;10.38;73.72;100959.06;5047731;28;45205;-83
2022/03/04 03:20:52;;;;;;;;;74.33;58.33;;;;;10.52;73.50;100975.94;5065139;28;47096;-86
2022/03/04 03:23:17;;;;;;;;;74.33;57.67;;;;;10.61;73.99;100979.50;5063398;28;45954;-87
2022/03/04 03:25:42;;;;;;;;;72.00;56.33;;;;;10.64;73.60;100983.09;5064051;28;45263;-84
2022/03/04 03:28:08;;;;;;;;;71.67;57.00;;;;;10.61;73.75;100967.25;5064741;28;45532;-87
2022/03/04 03:30:34;;;;;;;;;77.33;60.33;;;;;10.64;73.65;100974.28;5063355;28;47033;-86
2022/03/04 03:32:59;;;;;;;;;78.33;60.00;;;;;10.64;73.34;100969.03;5061032;28;45509;-84
2022/03/04 03:35:25;;;;;;;;;76.00;60.00;;;;;10.74;73.10;100987.59;5061808;28;45323;-81
2022/03/04 03:37:50;;;;;;;;;75.67;60.33;;;;;10.77;73.42;100984.97;5073215;28;45319;-79
2022/03/04 03:40:16;;;;;;;;;72.33;56.33;;;;;10.81;73.23;100991.16;5061554;28;46472;-81
2022/03/04 03:42:42;;;;;;;;;69.00;57.33;;;;;10.70;73.01;100962.09;5059558;28;45545;-83
2022/03/04 03:45:10;;;;;;;;;70.00;56.25;;;;;10.88;72.33;100986.81;5059780;28;45346;-79
2022/03/04 03:47:35;;;;;;;;;68.67;57.33;;;;;10.90;72.16;100991.25;5059814;28;45246;-83
2022/03/04 03:50:01;;;;;;;;;68.00;55.25;;;;;10.93;72.53;101000.94;5060124;28;46764;-84
2022/03/04 03:52:26;;;;;;;;;70.33;56.00;;;;;10.84;72.37;100972.75;5058770;28;45978;-88
2022/03/04 03:54:52;;;;;;;;;67.25;54.50;;;;;10.97;72.63;100994.81;5061017;28;45285;-82
2022/03/04 03:57:17;;;;;;;;;71.50;56.75;;;;;10.99;72.50;100987.84;5061324;28;45307;-83
2022/03/04 03:59:42;;;;;;;;;66.00;52.25;;;;;10.98;71.65;100992.22;5060568;28;47060;-81
2022/03/04 04:02:08;;;;;;;;;65.75;53.00;;;;;11.02;71.75;100995.78;5060250;28;45408;-86
2022/03/04 04:04:34;;;;;;;;;67.75;55.00;;;;;11.02;72.03;100988.75;5060344;28;45653;-84
2022/03/04 04:07:07;;;;;;;;;65.50;51.25;;;;;11.00;71.75;100984.34;5060963;28;45448;-84
2022/03/04 04:09:33;;;;;;;;;63.75;49.25;;;;;11.00;70.86;100985.22;5060922;28;46625;-89
2022/03/04 04:11:59;;;;;;;;;63.75;50.00;;;;;11.06;71.17;101000.19;5064798;28;45186;-78
2022/03/04 04:14:26;;;;;;;;;56.00;46.25;;;;;11.03;70.83;101006.31;5072781;28;45411;-87
2022/03/04 04:16:51;;;;;;;;;60.25;48.50;;;;;11.04;70.75;101008.09;5061484;28;45249;-87
2022/03/04 04:19:16;;;;;;;;;59.75;49.75;;;;;11.05;70.94;101023.03;5060757;28;45996;-86
2022/03/04 04:21:42;;;;;;;;;63.00;48.50;;;;;11.03;71.03;101006.31;5060492;28;45418;-85
2022/03/04 04:24:08;;;;;;;;;66.00;50.75;;;;;11.02;71.05;101004.56;5060443;28;45412;-88
2022/03/04 04:26:34;;;;;;;;;54.50;43.00;;;;;11.02;70.39;101004.56;5057945;28;45401;-83
2022/03/04 04:28:59;;;;;;;;;61.00;48.50;;;;;11.03;70.76;101005.44;5059230;28;45442;-83
2022/03/04 04:31:25;;;;;;;;;64.50;51.75;;;;;11.02;71.07;101001.91;5059111;28;45165;-84
2022/03/04 04:33:51;;;;;;;;;63.00;49.00;;;;;11.03;70.74;101008.97;5059521;28;45393;-88
2022/03/04 04:36:17;;;;;;;;;65.75;52.50;;;;;10.99;70.32;101015.09;5059568;28;45324;-82
2022/03/04 04:38:42;;;;;;;;;63.75;51.50;;;;;10.94;71.07;101003.59;5059229;28;46488;-85
2022/03/04 04:41:08;;;;;;;;;65.00;51.50;;;;;11.03;70.67;101010.72;5060734;28;45235;-83
2022/03/04 09:54:34;;;;;;;;;71.00;55.50;;;;;13.79;58.97;101162.03;5034320;28;45701;-88
2022/03/04 09:57:01;;;;;;;;;74.00;56.00;;;;;13.97;58.83;101175.28;5056169;28;45413;-82
2022/03/04 09:59:26;;;;;;;;;67.75;52.50;;;;;14.07;58.48;101165.56;5056523;28;45448;-83
2022/03/04 10:01:52;;;;;;;;;69.75;56.00;;;;;14.20;57.84;101184.09;5056102;28;45477;-85
2022/03/04 10:04:19;;;;;;;;;63.50;51.25;;;;;14.26;57.87;101186.75;5057201;28;45457;-83
2022/03/04 10:06:47;;;;;;;;;73.25;58.50;;;;;14.31;57.98;101192.03;5056094;28;45441;-80
2022/03/04 10:09:13;;;;;;;;;64.50;51.75;;;;;14.32;57.79;101187.63;5056780;28;45285;-83
2022/03/04 10:11:38;;;;;;;;;72.50;56.00;;;;;14.29;57.60;101184.97;5056789;28;45337;-81
2022/03/04 10:14:13;;;;;;;;;73.00;55.50;;;;;14.23;57.94;101177.91;5055989;28;45981;-81
2022/03/04 10:16:41;;;;;;;;;69.75;54.75;;;;;14.35;57.66;101190.28;5056355;28;45291;-82
2022/03/04 10:19:14;;;;;;;;;72.00;56.75;;;;;14.20;57.65;101178.78;5056870;28;45937;-80
2022/03/04 10:21:45;;;;;;;;;69.00;55.00;;;;;14.29;57.81;101184.97;5056613;28;45310;-81
2022/03/04 10:24:11;;;;;;;;;72.75;54.50;;;;;14.32;57.92;101187.63;5055983;28;46254;-82
2022/03/04 10:26:36;;;;;;;;;68.50;55.75;;;;;14.09;57.50;101147.91;5037749;28;45347;-80
2022/03/04 10:29:17;;;;;;;;;61.75;49.00;;;;;14.01;57.77;101131.13;5055762;28;45503;-78
2022/03/04 10:32:06;;;;;;;;;71.75;56.00;;;;;14.40;57.53;101189.38;5055856;28;45426;-83
2022/03/04 10:34:59;;;;;;;;;70.75;55.75;;;;;14.42;57.55;101189.38;5055365;28;45454;-82
2022/03/04 10:37:46;;;;;;;;;70.25;56.50;;;;;14.48;57.46;101192.06;5013125;28;45424;-80
2022/03/04 10:40:30;;;;;;;;;72.25;58.25;;;;;14.53;57.13;101195.59;5013755;28;45391;-82
2022/03/04 10:43:01;;;;;;;;;70.25;57.25;;;;;14.24;57.40;101156.72;5014312;28;45484;-81
2022/03/04 10:45:27;;;;;;;;;67.75;55.00;;;;;14.54;56.59;101194.72;5015017;28;45554;-80
2022/03/04 10:47:58;;;;;;;;;70.00;50.50;;;;;14.42;56.67;101179.66;5015662;28;45639;-80
2022/03/04 10:50:42;;;;;;;;;66.50;52.75;;;;;14.46;56.76;101189.41;5017704;28;45478;-78
2022/03/04 10:53:07;;;;;;;;;65.75;50.25;;;;;14.58;56.50;101195.56;5017528;28;45488;-81
2022/03/04 10:55:36;;;;;;;;;69.75;54.25;;;;;14.57;56.47;101185.88;5018363;28;46001;-78
2022/03/04 10:58:07;;;;;;;;;67.75;53.50;;;;;14.66;56.19;101186.72;5018588;28;45352;-79
2022/03/04 11:00:35;;;;;;;;;73.75;58.50;;;;;14.63;56.34;101186.75;5017634;28;45341;-77
2022/03/04 11:03:03;;;;;;;;;70.25;55.00;;;;;14.77;56.11;101198.19;5017701;28;45483;-81
2022/03/04 11:05:29;;;;;;;;;72.75;56.50;;;;;14.82;55.74;101187.59;5018571;28;45404;-78
2022/03/04 11:07:55;;;;;;;;;77.75;57.25;;;;;14.87;55.75;101188.44;5019453;28;45389;-83
2022/03/04 11:10:21;;;;;;;;;71.75;53.50;;;;;14.96;55.76;101193.72;5019724;28;45328;-83
2022/03/04 11:12:50;;;;;;;;;69.00;52.75;;;;;14.94;55.24;101184.00;5018568;28;45209;-84
2022/03/04 11:15:17;;;;;;;;;63.25;52.00;;;;;15.08;55.25;101190.16;5054579;28;46122;-80
2022/03/04 11:17:45;;;;;;;;;67.50;55.00;;;;;15.05;54.47;101176.88;5059651;28;45444;-79
2022/03/04 11:20:11;;;;;;;;;74.75;58.25;;;;;15.14;54.77;101179.50;5063219;28;45410;-77
2022/03/04 11:22:41;;;;;;;;;70.50;57.00;;;;;15.26;54.13;101187.41;5064611;28;45291;-75
2022/03/04 11:25:12;;;;;;;;;66.00;53.50;;;;;15.11;54.29;101163.59;5060812;28;45367;-78
2022/03/04 11:27:47;;;;;;;;;70.75;56.75;;;;;15.24;53.99;101185.63;5060477;28;45351;-77
2022/03/04 11:30:45;;;;;;;;;69.00;55.75;;;;;15.36;54.46;101183.84;5060812;28;45436;-80
2022/03/04 11:33:16;;;;;;;;;73.75;55.75;;;;;15.44;53.39;101175.78;5060747;28;45446;-83
2022/03/04 11:35:48;;;;;;;;;68.25;53.00;;;;;15.53;53.41;101181.06;5059641;28;47028;-80
2022/03/04 11:38:14;;;;;;;;;66.25;54.00;;;;;15.54;53.79;101184.59;5058374;28;45550;-78
2022/03/04 11:40:49;;;;;;;;;73.25;58.00;;;;;15.39;53.63;101159.91;5058979;28;45438;-82
2022/03/04 11:43:16;;;;;;;;;72.00;55.50;;;;;15.47;53.43;101172.28;5059312;28;45280;-80
2022/03/04 11:45:42;;;;;;;;;70.75;55.00;;;;;15.47;53.22;101174.91;5058229;28;46473;-77
2022/03/04 11:48:11;;;;;;;;;71.75;56.50;;;;;15.45;53.81;101171.38;5058915;28;45491;-76
2022/03/04 11:50:36;;;;;;;;;67.00;50.50;;;;;15.51;53.35;101171.34;5059314;28;45565;-78
2022/03/04 11:53:18;;;;;;;;;71.00;55.75;;;;;15.55;53.67;101171.34;5058958;28;45282;-78
2022/03/04 11:56:07;;;;;;;;;66.75;52.25;;;;;15.43;53.44;101170.50;5058823;28;46067;-81
2022/03/04 11:59:05;;;;;;;;;70.00;55.75;;;;;15.31;53.52;101144.91;5052512;28;45541;-84
2022/03/04 12:01:37;;;;;;;;;73.50;56.00;;;;;15.26;53.35;101142.31;5020134;28;45467;-76
2022/03/04 12:04:17;;;;;;;;;68.50;55.25;;;;;15.19;53.52;101115.78;5016725;28;45515;-80
2022/03/04 12:06:43;;;;;;;;;71.00;54.75;;;;;15.62;53.01;101172.19;5015402;28;45488;-79
2022/03/04 12:09:31;;;;;;;;;55.75;41.50;;;;;15.73;52.77;101172.13;5015661;28;45442;-77
2022/03/04 12:12:18;;;;;;;;;68.50;54.00;;;;;15.83;52.97;101172.06;5015204;28;45506;-74
2022/03/04 12:14:54;;;;;;;;;78.50;58.75;;;;;15.90;52.27;101171.09;5015594;28;45439;-79
2022/03/04 12:17:21;;;;;;;;;68.75;53.25;;;;;15.89;52.25;101164.03;5015460;28;45328;-82
2022/03/04 12:19:48;;;;;;;;;71.25;55.75;;;;;15.81;52.48;101162.31;5015571;28;45420;-81
2022/03/04 12:22:16;;;;;;;;;71.75;56.75;;;;;15.89;52.16;101158.72;5015571;28;45383;-78
2022/03/04 12:24:59;;;;;;;;;68.50;52.75;;;;;16.02;52.15;101158.63;5015407;28;45497;-79
2022/03/04 12:27:44;;;;;;;;;73.50;57.25;;;;;16.11;51.67;101175.38;5015774;28;45673;-78
2022/03/04 12:30:17;;;;;;;;;72.75;57.00;;;;;16.27;51.76;101157.50;5015192;28;45347;-77
2022/03/04 12:32:48;;;;;;;;;38.75;33.00;;;;;16.37;51.32;101155.63;5015153;28;45434;-80
2022/03/04 12:35:17;;;;;;;;;65.50;52.00;;;;;16.26;51.46;101147.78;5015326;28;45492;-77
2022/03/04 12:37:43;;;;;;;;;75.50;56.00;;;;;16.35;50.87;101152.13;5023677;28;46367;-77
2022/03/04 12:40:10;;;;;;;;;71.25;57.00;;;;;16.36;51.08;101135.28;5057243;28;45263;-77
2022/03/04 12:42:35;;;;;;;;;70.50;58.00;;;;;16.49;50.94;101142.25;5057295;28;45506;-78
2022/03/04 12:45:00;;;;;;;;;70.75;57.25;;;;;16.54;50.99;101137.75;5057301;28;45522;-78
2022/03/04 12:47:27;;;;;;;;;75.25;58.25;;;;;16.66;50.65;101150.00;5039055;28;46056;-78
2022/03/04 12:49:54;;;;;;;;;75.50;57.25;;;;;16.64;50.39;101147.38;5056871;28;45401;-80
2022/03/04 12:52:23;;;;;;;;;70.25;57.00;;;;;16.68;50.77;101145.59;5057517;28;45466;-78
2022/03/04 12:54:49;;;;;;;;;74.50;61.75;;;;;16.69;50.75;101144.72;5057344;28;45437;-80
2022/03/04 12:57:16;;;;;;;;;76.00;61.75;;;;;16.68;50.16;101134.94;5057494;28;45292;-81
2022/03/04 12:59:48;;;;;;;;;72.00;55.25;;;;;16.69;50.61;101142.06;5039092;28;46125;-81
2022/03/04 13:02:14;;;;;;;;;71.50;53.75;;;;;16.42;50.50;101098.00;5057099;28;45293;-79
2022/03/04 13:04:41;;;;;;;;;69.75;54.75;;;;;16.59;50.96;101137.72;5057153;28;45317;-76
2022/03/04 13:07:06;;;;;;;;;65.75;53.50;;;;;16.63;50.18;101131.44;5056868;28;46222;-78
2022/03/04 13:09:32;;;;;;;;;68.75;53.25;;;;;16.57;49.99;101116.44;5056505;28;45403;-77
2022/03/04 13:12:08;;;;;;;;;64.75;50.75;;;;;16.58;50.15;101122.66;5055742;28;45381;-78
2022/03/04 13:14:33;;;;;;;;;71.75;54.00;;;;;16.47;50.62;101110.34;5056891;28;45557;-79
2022/03/04 13:16:59;;;;;;;;;68.75;53.25;;;;;16.61;50.28;101126.16;5057159;28;45404;-75
2022/03/04 13:19:35;;;;;;;;;68.50;56.50;;;;;16.53;50.82;101110.25;5057076;28;45458;-74
2022/03/04 13:22:08;;;;;;;;;72.25;54.00;;;;;16.63;50.57;101119.03;5057610;28;45637;-79
2022/03/04 13:24:44;;;;;;;;;70.25;55.00;;;;;16.57;50.35;101104.94;5057190;28;45594;-78
2022/03/04 13:27:13;;;;;;;;;67.50;50.00;;;;;16.67;50.12;101117.22;5057021;28;45498;-77
2022/03/04 13:29:39;;;;;;;;;66.25;53.00;;;;;16.63;50.19;101115.47;5056704;28;45452;-79
2022/03/04 13:32:13;;;;;;;;;66.25;53.25;;;;;16.63;50.03;101104.84;5056710;28;45333;-74
2022/03/04 13:34:40;;;;;;;;;67.75;52.75;;;;;16.54;50.07;101112.03;5057547;28;45466;-77
2022/03/04 13:37:08;;;;;;;;;63.75;51.50;;;;;16.50;50.00;101112.97;5057580;28;46452;-76
2022/03/04 13:39:38;;;;;;;;;65.50;52.75;;;;;16.51;50.04;101103.22;5058288;28;45711;-78
2022/03/04 13:42:22;;;;;;;;;63.00;50.50;;;;;16.51;50.02;101111.19;5057896;28;45264;-76
2022/03/04 13:44:52;;;;;;;;;68.75;53.50;;;;;16.47;50.22;101105.03;5039826;28;45533;-78
2022/03/04 13:47:41;;;;;;;;;64.00;51.00;;;;;16.42;50.53;101103.31;5056561;28;46655;-78
2022/03/04 13:50:26;;;;;;;;;63.50;49.75;;;;;16.40;50.11;101111.31;5036421;28;45494;-77
2022/03/04 13:53:05;;;;;;;;;61.75;46.50;;;;;16.28;50.82;101116.72;5056824;28;45271;-78
2022/03/04 13:55:43;;;;;;;;;63.50;51.25;;;;;16.25;50.91;101099.03;5038007;28;45392;-82
2022/03/04 13:58:26;;;;;;;;;62.25;49.50;;;;;16.14;50.51;101108.91;5055963;28;47143;-79
2022/03/04 14:00:55;;;;;;;;;59.75;49.25;;;;;16.10;50.63;101112.50;5055831;28;45422;-76
2022/03/04 14:03:25;;;;;;;;;66.00;50.00;;;;;15.90;50.92;101077.22;5056684;28;45422;-78
2022/03/04 14:06:00;;;;;;;;;61.25;49.75;;;;;15.86;51.02;101089.66;5056569;28;45590;-76
2022/03/04 14:08:27;;;;;;;;;60.75;49.00;;;;;15.87;51.12;101096.75;5056714;28;46285;-82
2022/03/04 14:10:53;;;;;;;;;63.75;50.50;;;;;15.90;51.84;101104.69;5056217;28;45435;-77
2022/03/04 14:13:21;;;;;;;;;62.50;49.75;;;;;15.81;51.61;101079.97;5056571;28;45472;-77
2022/03/04 14:15:49;;;;;;;;;67.75;50.25;;;;;15.83;51.92;101097.69;5057410;28;45566;-76
2022/03/04 14:18:17;;;;;;;;;61.00;47.50;;;;;15.77;52.39;101083.56;5057330;28;46659;-78
2022/03/04 14:20:45;;;;;;;;;59.00;49.00;;;;;15.75;52.83;101091.53;5039049;28;45433;-84
2022/03/04 14:23:12;;;;;;;;;62.25;50.25;;;;;15.76;52.75;101098.63;5058408;28;45351;-79
2022/03/04 14:25:39;;;;;;;;;65.75;49.25;;;;;15.59;52.99;101081.91;5060092;28;45786;-78
2022/03/04 14:28:06;;;;;;;;;66.75;51.00;;;;;15.56;53.31;101097.84;5058885;28;45764;-76
2022/03/04 14:30:34;;;;;;;;;62.50;50.00;;;;;15.60;53.71;101097.84;5059068;28;45491;-78
2022/03/04 14:33:01;;;;;;;;;64.75;50.25;;;;;15.68;53.56;101116.38;5059293;28;45457;-81
2022/03/04 14:35:30;;;;;;;;;59.00;49.25;;;;;15.65;53.18;101113.75;5041664;28;45426;-77
2022/03/04 14:37:56;;;;;;;;;63.75;48.25;;;;;15.57;53.51;101105.81;5059005;28;46455;-77
2022/03/04 14:40:22;;;;;;;;;63.00;47.75;;;;;15.60;53.63;101116.44;5041060;28;45351;-79
2022/03/04 14:42:50;;;;;;;;;53.75;43.75;;;;;15.57;53.44;101123.53;5059483;28;45416;-78
2022/03/04 14:45:15;;;;;;;;;56.75;46.75;;;;;15.51;53.22;101120.91;5059001;28;45630;-78
2022/03/04 14:47:45;;;;;;;;;57.50;47.00;;;;;15.52;53.41;101125.31;5059418;28;45324;-75
2022/03/04 14:50:12;;;;;;;;;60.75;48.25;;;;;15.55;53.65;101120.00;5058978;28;45457;-75
2022/03/04 14:52:38;;;;;;;;;62.00;49.75;;;;;15.59;53.56;101111.97;5059949;28;45440;-83
2022/03/04 14:55:07;;;;;;;;;62.25;48.50;;;;;15.53;53.12;101106.69;5060910;28;45488;-84
2022/03/04 14:57:32;;;;;;;;;55.00;45.50;;;;;15.51;53.64;101108.50;5043102;28;47062;-83
2022/03/04 14:59:58;;;;;;;;;61.50;47.00;;;;;15.51;53.51;101110.28;5059991;28;45335;-83
2022/03/04 15:02:25;;;;;;;;;60.50;46.00;;;;;15.32;54.12;101105.09;5042264;28;45685;-78
2022/03/04 15:04:50;;;;;;;;;55.00;44.00;;;;;15.13;54.20;101097.25;5060207;28;45796;-79
2022/03/04 15:07:16;;;;;;;;;58.00;45.50;;;;;15.08;54.29;101094.63;5059692;28;45905;-82
2022/03/04 15:09:42;;;;;;;;;59.50;48.00;;;;;15.14;54.34;101110.50;5059090;28;45491;-76
2022/03/04 15:12:09;;;;;;;;;58.00;48.25;;;;;15.10;54.67;101114.06;5059251;28;45430;-82
2022/03/04 15:14:35;;;;;;;;;58.50;46.25;;;;;15.00;54.71;101099.09;5058747;28;45271;-83
2022/03/04 15:17:05;;;;;;;;;55.50;46.00;;;;;14.91;54.50;101099.13;5058506;28;47268;-83
2022/03/04 15:19:32;;;;;;;;;62.25;47.75;;;;;14.94;55.27;101105.28;5058340;28;45540;-82
2022/03/04 15:21:59;;;;;;;;;62.25;46.75;;;;;14.82;54.89;101098.28;5058880;28;45488;-80
2022/03/04 15:24:25;;;;;;;;;57.50;44.75;;;;;14.78;54.88;101109.78;5058846;28;45498;-74
2022/03/04 15:26:51;;;;;;;;;55.00;45.25;;;;;14.79;55.03;101115.97;5058330;28;46403;-78
2022/03/04 15:29:17;;;;;;;;;52.75;43.50;;;;;14.77;55.13;101123.91;5058601;28;45713;-75
2022/03/04 15:31:42;;;;;;;;;56.75;42.75;;;;;14.63;55.03;101099.25;5059154;28;45371;-77
2022/03/04 15:34:07;;;;;;;;;59.25;47.50;;;;;14.60;55.44;101120.44;5058408;28;45450;-81
2022/03/04 15:36:33;;;;;;;;;58.75;46.50;;;;;14.58;55.82;101124.00;5040740;28;47105;-81
2022/03/04 15:38:59;;;;;;;;;58.75;47.25;;;;;14.56;56.00;101129.31;5059287;28;45357;-76
2022/03/04 15:41:24;;;;;;;;;62.00;48.50;;;;;14.54;56.19;101117.84;5058801;28;45270;-80
2022/03/04 15:43:50;;;;;;;;;56.50;43.50;;;;;14.46;56.79;101119.63;5058528;28;45903;-78
2022/03/04 15:46:15;;;;;;;;;56.25;45.75;;;;;14.36;56.65;101101.94;5058070;28;46560;-79
2022/03/04 15:48:41;;;;;;;;;62.00;49.25;;;;;14.48;56.95;101121.38;5058088;28;45473;-76
2022/03/04 15:51:06;;;;;;;;;54.50;43.00;;;;;14.39;57.32;101131.06;5058137;28;45261;-78
2022/03/04 15:53:32;;;;;;;;;58.75;44.50;;;;;14.19;57.45;101107.25;5058279;28;45434;-78
2022/03/04 15:55:58;;;;;;;;;54.75;44.00;;;;;14.18;57.24;101134.66;5057670;28;45357;-80
2022/03/04 15:58:24;;;;;;;;;48.75;41.75;;;;;14.00;57.49;101117.00;5057774;28;45437;-80
2022/03/04 16:00:50;;;;;;;;;56.25;43.25;;;;;14.01;58.42;101128.47;5057810;28;45429;-79
2022/03/04 16:03:17;;;;;;;;;53.25;43.00;;;;;13.96;58.27;101125.84;5057963;28;45485;-76
2022/03/04 16:05:42;;;;;;;;;45.00;35.00;;;;;13.93;59.56;101123.16;5057664;28;46418;-75
2022/03/04 16:08:08;;;;;;;;;41.75;36.50;;;;;13.95;60.24;101137.28;5057902;28;45215;-80
2022/03/04 16:10:33;;;;;;;;;32.75;29.00;;;;;13.90;60.18;101137.31;5058014;28;45385;-81
2022/03/04 16:12:59;;;;;;;;;39.75;35.50;;;;;13.82;60.78;101130.25;5058727;28;45239;-75
2022/03/04 16:15:24;;;;;;;;;33.00;30.00;;;;;13.84;60.53;101131.13;5057228;28;45446;-75
2022/03/04 16:17:49;;;;;;;;;36.00;32.25;;;;;13.80;60.67;101132.00;5057523;28;45233;-79
2022/03/04 16:20:15;;;;;;;;;39.00;30.50;;;;;13.72;60.71;101125.81;5057842;28;45392;-75
2022/03/04 16:22:41;;;;;;;;;37.00;30.75;;;;;13.64;60.81;101124.03;5057512;28;45323;-76
2022/03/04 16:25:07;;;;;;;;;35.00;30.50;;;;;13.52;61.14;101113.44;5057593;28;47062;-77
2022/03/04 16:27:33;;;;;;;;;29.75;27.75;;;;;13.51;61.41;101132.88;5057379;28;45409;-75
2022/03/04 16:29:58;;;;;;;;;41.25;33.75;;;;;13.47;61.84;101127.53;5055763;28;45434;-75
2022/03/04 16:32:24;;;;;;;;;33.50;28.50;;;;;13.48;62.07;101132.84;5057543;28;45263;-79
2022/03/04 16:34:50;;;;;;;;;43.00;35.25;;;;;13.43;61.80;101116.09;5057027;28;45403;-75
2022/03/04 16:37:15;;;;;;;;;33.50;31.00;;;;;13.30;62.85;101115.16;5057093;28;45514;-79
2022/03/04 16:39:41;;;;;;;;;41.25;35.75;;;;;13.30;62.87;101132.78;5057233;28;45386;-76
2022/03/04 16:42:08;;;;;;;;;38.50;33.00;;;;;13.23;63.04;101118.69;5057477;28;45241;-78
2022/03/04 16:44:34;;;;;;;;;38.50;33.75;;;;;13.16;63.59;101108.94;5056814;28;45459;-76
2022/03/04 16:47:00;;;;;;;;;43.50;36.00;;;;;13.17;63.90;101121.28;5056558;28;45426;-74
2022/03/04 16:49:26;;;;;;;;;40.00;33.75;;;;;13.16;63.75;101123.91;5057470;28;45446;-78
2022/03/04 16:51:53;;;;;;;;;38.00;34.25;;;;;13.14;64.18;101129.22;5056921;28;45426;-81
2022/03/04 16:54:21;;;;;;;;;40.75;35.25;;;;;13.09;63.98;101120.38;5055686;28;45681;-77
2022/03/04 16:56:46;;;;;;;;;41.50;34.75;;;;;13.07;64.76;101124.78;5056656;28;45241;-78
2022/03/04 16:59:12;;;;;;;;;42.75;35.50;;;;;13.00;63.95;101118.56;5056863;28;45355;-79
2022/03/04 17:01:39;;;;;;;;;40.75;36.00;;;;;13.02;64.25;101130.03;5057055;28;45247;-78
2022/03/04 17:04:04;;;;;;;;;38.00;33.75;;;;;12.98;64.55;101132.66;5056745;28;46347;-77
2022/03/04 17:06:30;;;;;;;;;44.00;37.75;;;;;12.86;64.47;101125.59;5056853;28;45299;-82
2022/03/04 17:08:55;;;;;;;;;48.00;39.50;;;;;12.85;64.87;101123.81;5039704;28;45415;-80
2022/03/04 17:11:21;;;;;;;;;38.75;33.75;;;;;12.86;65.17;101132.63;5057656;28;45407;-77
2022/03/04 17:13:55;;;;;;;;;47.25;37.50;;;;;12.71;64.54;101110.53;5038886;28;45403;-79
2022/03/04 17:16:21;;;;;;;;;41.00;37.00;;;;;12.82;64.59;101134.34;5057523;28;45387;-81
2022/03/04 17:18:46;;;;;;;;;45.25;38.25;;;;;12.75;65.18;101133.47;5057242;28;45406;-81